Time;durP1;ratioP1;P1;durP2;ratioP2;P2;SDS_P1;SDS_P2;PMS_P1;PMS_P2;Temp;Humidity;BMP_temperature;BMP_pressure;BME280_temperature;BME280_humidity;BME280_pressure;Samples;Min_cycle;Max_cycle;Signal;HPM_P1;HPM_P2
2022/11/05 00:10:45;;;;;;;6.22;1.75;;;7.90;99.90;;;;;;5104444;28;20039;-71
2022/11/05 00:18:40;;;;;;;7.78;1.33;;;7.80;99.90;;;;;;5103963;28;20139;-71
2022/11/05 00:25:12;;;;;;;3.58;0.93;;;7.80;99.90;;;;;;5106519;28;20546;-71
2022/11/05 00:26:35;;;;;;;4.50;1.27;;;7.70;99.90;;;;;;5089958;28;20043;-70
2022/11/05 00:29:01;;;;;;;4.10;1.13;;;7.70;99.90;;;;;;5086198;28;20069;-70
2022/11/05 00:31:27;;;;;;;3.00;1.00;;;7.70;99.90;;;;;;5085137;28;20048;-71
2022/11/05 00:33:52;;;;;;;3.78;1.08;;;7.60;99.90;;;;;;5083768;28;20102;-70
2022/11/05 00:36:18;;;;;;;4.15;1.33;;;7.60;99.90;;;;;;5085290;28;20496;-72
2022/11/05 00:38:43;;;;;;;4.70;1.40;;;7.60;99.90;;;;;;5086181;28;20024;-71
2022/11/05 00:41:09;;;;;;;4.07;1.17;;;7.60;99.90;;;;;;5086945;28;20028;-70
2022/11/05 00:46:18;;;;;;;5.13;0.90;;;7.60;99.90;;;;;;5086121;28;20506;-71
2022/11/05 00:51:28;;;;;;;3.80;1.10;;;7.50;99.90;;;;;;5081633;28;20067;-71
2022/11/05 00:53:54;;;;;;;7.18;1.02;;;7.50;99.90;;;;;;5085674;28;20090;-70
2022/11/05 00:56:19;;;;;;;6.00;1.80;;;7.50;99.90;;;;;;5085621;28;20046;-71
2022/11/05 00:58:45;;;;;;;2.92;1.08;;;7.40;99.90;;;;;;5084654;28;20032;-71
2022/11/05 01:01:10;;;;;;;10.30;1.05;;;7.40;99.90;;;;;;5086360;28;20422;-70
2022/11/05 01:03:38;;;;;;;2.58;0.77;;;7.40;99.90;;;;;;5084639;28;20032;-70
2022/11/05 01:06:06;;;;;;;6.70;1.27;;;7.40;99.90;;;;;;5084648;28;20035;-70
2022/11/05 01:08:32;;;;;;;5.45;1.20;;;7.40;99.90;;;;;;5084962;28;20043;-69
2022/11/05 01:10:58;;;;;;;7.68;1.30;;;7.40;99.90;;;;;;5087030;28;20040;-71
2022/11/05 01:13:29;;;;;;;2.45;1.17;;;7.40;99.90;;;;;;5089357;28;20044;-70
2022/11/05 01:15:55;;;;;;;5.05;1.30;;;7.40;99.90;;;;;;5086426;28;20050;-70
2022/11/05 01:18:23;;;;;;;6.18;1.00;;;7.40;99.90;;;;;;5089395;28;20377;-70
2022/11/05 01:20:48;;;;;;;4.75;1.40;;;7.40;99.90;;;;;;5089656;28;20043;-70
2022/11/05 01:23:14;;;;;;;7.07;1.10;;;7.40;99.90;;;;;;5087650;28;20040;-70
2022/11/05 01:25:41;;;;;;;2.75;1.27;;;7.40;99.90;;;;;;5089538;28;20178;-71
2022/11/05 01:28:08;;;;;;;7.28;1.52;;;7.40;99.90;;;;;;5090498;28;20039;-71
2022/11/05 01:30:34;;;;;;;7.68;1.40;;;7.40;99.90;;;;;;5088754;28;20087;-71
2022/11/05 01:33:02;;;;;;;7.68;1.65;;;7.40;99.90;;;;;;5088149;28;20044;-71
2022/11/05 01:35:28;;;;;;;5.07;1.70;;;7.30;99.90;;;;;;5088491;28;20055;-71
2022/11/05 01:37:53;;;;;;;5.30;1.10;;;7.30;99.90;;;;;;5088857;28;20105;-71
2022/11/05 01:40:22;;;;;;;5.55;1.42;;;7.30;99.90;;;;;;5087538;28;20028;-71
2022/11/05 01:42:48;;;;;;;9.10;1.45;;;7.30;99.90;;;;;;5089781;28;20031;-70
2022/11/05 01:45:21;;;;;;;6.18;1.48;;;7.30;99.90;;;;;;5088484;28;20028;-73
2022/11/05 01:48:07;;;;;;;5.80;1.42;;;7.30;99.90;;;;;;5089782;28;20060;-70
2022/11/05 01:50:41;;;;;;;2.72;1.27;;;7.20;99.90;;;;;;5082000;28;20043;-69
2022/11/05 01:53:40;;;;;;;6.55;2.65;;;7.20;99.90;;;;;;5089527;28;20089;-70
2022/11/05 01:56:21;;;;;;;6.97;1.52;;;7.30;99.90;;;;;;5085126;28;20101;-76
2022/11/05 01:58:59;;;;;;;4.68;1.85;;;7.30;99.90;;;;;;5089082;28;20039;-70
2022/11/05 02:01:25;;;;;;;6.95;1.45;;;7.30;99.90;;;;;;5088579;28;20071;-70
2022/11/05 02:03:54;;;;;;;7.15;1.25;;;7.30;99.90;;;;;;5087931;28;20499;-71
2022/11/05 02:06:20;;;;;;;3.53;1.33;;;7.40;99.90;;;;;;5087193;28;20111;-71
2022/11/05 02:09:11;;;;;;;5.82;1.00;;;7.50;99.90;;;;;;5089600;28;20753;-70
2022/11/05 02:11:36;;;;;;;4.70;1.38;;;7.60;99.90;;;;;;5085333;28;20044;-70
2022/11/05 02:14:02;;;;;;;1.42;0.60;;;7.60;99.90;;;;;;5087964;28;20381;-69
2022/11/05 02:16:36;;;;;;;1.17;0.40;;;7.60;99.90;;;;;;5088176;28;20036;-70
2022/11/05 02:19:23;;;;;;;0.90;0.30;;;7.60;99.90;;;;;;5089165;28;20114;-70
2022/11/05 02:22:13;;;;;;;1.70;0.30;;;7.70;99.90;;;;;;5100005;28;20066;-71
2022/11/05 02:25:16;;;;;;;0.73;0.45;;;7.70;99.90;;;;;;5082795;28;20044;-71
2022/11/05 02:28:31;;;;;;;1.85;0.20;;;7.60;99.90;;;;;;5087200;28;20043;-72
2022/11/05 02:31:09;;;;;;;0.90;0.10;;;7.60;99.90;;;;;;5008304;28;20547;-71
2022/11/05 02:33:46;;;;;;;3.30;1.45;;;7.60;99.90;;;;;;5069970;28;20511;-72
2022/11/05 02:36:18;;;;;;;5.55;1.27;;;7.60;99.90;;;;;;5088566;28;20044;-70
2022/11/05 02:38:58;;;;;;;2.38;1.13;;;7.60;99.90;;;;;;5099348;28;20076;-70
2022/11/05 02:42:05;;;;;;;2.88;1.13;;;7.50;99.90;;;;;;5096381;27;20028;-70
2022/11/05 02:44:36;;;;;;;5.80;1.20;;;7.50;99.90;;;;;;5106118;28;20457;-71
2022/11/05 02:47:08;;;;;;;5.40;1.23;;;7.40;99.90;;;;;;5108915;27;20050;-70
2022/11/05 02:49:45;;;;;;;5.15;1.60;;;7.40;99.90;;;;;;5108470;27;20126;-72
2022/11/05 02:52:20;;;;;;;9.05;1.52;;;7.40;99.90;;;;;;5109841;27;20031;-72
2022/11/05 02:55:40;;;;;;;3.50;1.17;;;7.40;99.90;;;;;;5110676;27;20028;-72
2022/11/05 02:58:07;;;;;;;2.42;1.13;;;7.30;99.90;;;;;;5058937;28;20042;-70
2022/11/05 03:00:38;;;;;;;8.73;1.35;;;7.30;99.90;;;;;;5086000;28;20051;-71
2022/11/05 03:03:06;;;;;;;4.63;1.98;;;7.30;99.90;;;;;;5088089;28;20036;-71
2022/11/05 03:05:56;;;;;;;5.35;1.35;;;7.30;99.90;;;;;;5086947;28;20052;-71
2022/11/05 03:08:36;;;;;;;6.68;1.98;;;7.30;99.90;;;;;;5082556;28;20492;-70
2022/11/05 03:11:24;;;;;;;4.25;1.30;;;7.20;99.90;;;;;;5087907;28;20168;-70
2022/11/05 03:14:18;;;;;;;4.03;1.25;;;7.10;99.90;;;;;;5091261;28;20032;-70
2022/11/05 03:17:03;;;;;;;5.40;1.40;;;7.20;99.90;;;;;;5105801;28;20024;-70
2022/11/05 03:19:35;;;;;;;3.35;1.58;;;7.10;99.90;;;;;;5104197;28;20036;-71
2022/11/05 03:22:08;;;;;;;6.93;2.97;;;7.10;99.90;;;;;;5107988;28;20403;-70
2022/11/05 03:24:37;;;;;;;5.28;1.13;;;7.10;99.90;;;;;;5105882;27;20209;-70
2022/11/05 03:27:08;;;;;;;6.00;1.50;;;7.10;99.90;;;;;;5098891;28;20507;-69
2022/11/05 03:29:39;;;;;;;;;;;7.10;99.90;;;;;;5107895;27;20047;-69
2022/11/05 03:32:07;;;;;;;7.53;1.52;;;7.00;99.90;;;;;;5106894;28;20394;-71
2022/11/05 03:34:38;;;;;;;4.25;1.30;;;7.10;99.90;;;;;;5104811;28;20458;-71
2022/11/05 03:37:06;;;;;;;2.75;1.50;;;7.00;99.90;;;;;;5106890;28;20039;-71
2022/11/05 03:40:02;;;;;;;4.82;1.20;;;7.10;99.90;;;;;;5106945;27;20047;-71
2022/11/05 03:42:36;;;;;;;5.13;1.85;;;7.10;99.90;;;;;;5097827;28;20059;-70
2022/11/05 03:45:45;;;;;;;4.20;1.10;;;7.10;99.90;;;;;;5107717;28;20042;-69
2022/11/05 03:49:17;;;;;;;6.53;1.40;;;7.20;99.90;;;;;;5104729;27;20071;-69
2022/11/05 03:52:17;;;;;;;9.35;1.27;;;7.20;99.90;;;;;;5085903;28;20063;-70
2022/11/05 03:54:55;;;;;;;4.63;1.40;;;7.20;99.90;;;;;;5084875;28;20036;-71
2022/11/05 03:57:29;;;;;;;4.55;1.48;;;7.30;99.90;;;;;;5079323;28;20066;-69
2022/11/05 04:00:07;;;;;;;5.95;1.20;;;7.30;99.90;;;;;;5086102;28;20040;-71
2022/11/05 04:02:38;;;;;;;5.10;1.65;;;7.30;99.90;;;;;;5084770;28;20118;-70
2022/11/05 04:05:05;;;;;;;2.72;1.20;;;7.30;99.90;;;;;;5083487;28;20039;-70
2022/11/05 04:18:33;;;;;;;3.63;1.13;;;7.30;99.90;;;;;;5106622;28;20548;-72
2022/11/05 04:26:27;;;;;;;4.22;1.10;;;7.40;99.90;;;;;;5095528;28;20086;-70
2022/11/05 04:31:37;;;;;;;2.08;1.00;;;7.50;99.90;;;;;;5085424;28;20047;-71
2022/11/05 04:34:03;;;;;;;3.20;0.95;;;7.60;99.90;;;;;;5085972;28;20063;-70
2022/11/05 04:36:29;;;;;;;2.80;0.85;;;7.70;99.90;;;;;;5084921;28;20802;-70
2022/11/05 04:38:54;;;;;;;5.78;0.95;;;7.70;99.90;;;;;;5085057;28;20055;-70
2022/11/05 04:41:20;;;;;;;4.03;0.95;;;7.80;99.90;;;;;;5085363;28;20028;-71
2022/11/05 04:43:45;;;;;;;1.83;0.63;;;7.90;99.90;;;;;;5084321;28;20036;-71
2022/11/05 04:46:11;;;;;;;1.95;0.70;;;7.90;99.90;;;;;;5086311;28;20036;-70
2022/11/05 04:48:37;;;;;;;0.70;0.50;;;7.90;99.90;;;;;;5085475;28;20032;-70
2022/11/05 04:51:03;;;;;;;1.50;0.40;;;8.00;99.90;;;;;;5086112;28;20130;-69
2022/11/05 04:53:29;;;;;;;3.50;0.40;;;8.00;99.90;;;;;;5085851;28;20511;-70
2022/11/05 04:56:08;;;;;;;2.15;0.88;;;8.10;99.90;;;;;;5084707;28;20044;-70
2022/11/05 04:58:38;;;;;;;4.88;1.58;;;8.10;99.90;;;;;;5084790;28;20036;-70
2022/11/05 05:01:03;;;;;;;1.08;0.40;;;8.00;99.90;;;;;;5086161;28;20040;-69
2022/11/05 05:03:29;;;;;;;2.63;0.75;;;8.00;99.90;;;;;;5082498;28;20797;-70
2022/11/05 05:05:58;;;;;;;3.00;0.88;;;7.90;99.90;;;;;;5086122;28;20036;-70
2022/11/05 05:08:23;;;;;;;2.55;1.00;;;7.90;99.90;;;;;;5085238;28;20110;-70
2022/11/05 05:10:49;;;;;;;1.55;0.70;;;7.90;99.90;;;;;;5086076;28;20123;-70
2022/11/05 05:13:14;;;;;;;3.15;0.98;;;7.90;99.90;;;;;;5082928;28;20032;-74
2022/11/05 05:15:40;;;;;;;2.88;0.77;;;7.80;99.90;;;;;;5085358;28;20032;-70
2022/11/05 05:18:07;;;;;;;2.40;0.70;;;7.80;99.90;;;;;;5085709;28;20044;-70
2022/11/05 05:23:17;;;;;;;1.55;0.85;;;7.80;99.90;;;;;;5084572;28;20039;-71
2022/11/05 05:25:43;;;;;;;1.67;0.85;;;7.80;99.90;;;;;;5090563;28;20024;-71
2022/11/05 05:28:08;;;;;;;4.38;1.73;;;7.70;99.90;;;;;;5077854;28;20063;-71
2022/11/05 05:30:34;;;;;;;4.47;0.70;;;7.70;99.90;;;;;;5084716;28;20984;-71
2022/11/05 05:33:03;;;;;;;4.90;1.13;;;7.60;99.90;;;;;;5083999;28;20055;-71
2022/11/05 05:35:29;;;;;;;4.28;1.10;;;7.60;99.90;;;;;;5084474;28;20404;-71
2022/11/05 05:37:55;;;;;;;2.55;0.80;;;7.60;99.90;;;;;;5084206;28;20036;-70
2022/11/05 05:40:21;;;;;;;2.42;0.80;;;7.60;99.90;;;;;;5083358;28;20033;-73
2022/11/05 05:42:46;;;;;;;3.65;0.77;;;7.50;99.90;;;;;;5085652;28;20028;-71
2022/11/05 05:45:12;;;;;;;2.88;0.98;;;7.50;99.90;;;;;;5084036;28;20119;-70
2022/11/05 05:47:38;;;;;;;4.38;1.20;;;7.50;99.90;;;;;;5084729;28;20031;-70
2022/11/05 05:50:04;;;;;;;4.40;1.25;;;7.50;99.90;;;;;;5085798;28;20043;-71
2022/11/05 05:52:29;;;;;;;7.90;1.30;;;7.40;99.90;;;;;;5089349;28;20053;-71
2022/11/05 05:54:55;;;;;;;3.08;1.25;;;7.30;99.90;;;;;;5103540;27;20072;-71
2022/11/05 05:57:20;;;;;;;10.48;1.38;;;7.30;99.90;;;;;;5086060;28;20036;-71
2022/11/05 05:59:47;;;;;;;2.42;0.75;;;7.30;99.90;;;;;;5089224;28;20074;-71
2022/11/05 06:02:12;;;;;;;3.25;0.98;;;7.30;99.90;;;;;;5089868;28;20086;-71
2022/11/05 06:04:38;;;;;;;2.45;0.90;;;7.20;99.90;;;;;;5087806;28;20031;-71
2022/11/05 06:07:03;;;;;;;3.63;1.30;;;7.20;99.90;;;;;;5089148;28;20526;-71
2022/11/05 06:09:29;;;;;;;3.25;1.00;;;7.20;99.90;;;;;;5086929;28;20442;-71
2022/11/05 06:11:54;;;;;;;3.53;0.70;;;7.20;99.90;;;;;;5089201;28;20147;-71
2022/11/05 06:14:20;;;;;;;2.42;1.13;;;7.10;99.90;;;;;;5087401;28;20039;-72
2022/11/05 06:16:46;;;;;;;5.20;1.00;;;7.10;99.90;;;;;;5089306;28;20035;-74
2022/11/05 06:19:11;;;;;;;3.88;1.27;;;7.10;99.90;;;;;;5089251;28;20105;-71
2022/11/05 06:21:37;;;;;;;5.03;1.30;;;7.10;99.90;;;;;;5087962;28;20071;-71
2022/11/05 06:24:03;;;;;;;4.63;1.20;;;7.10;99.90;;;;;;5088208;28;20039;-70
2022/11/05 06:26:28;;;;;;;6.10;1.15;;;7.10;99.90;;;;;;5086544;28;20032;-71
2022/11/05 06:28:54;;;;;;;1.83;0.93;;;7.10;99.90;;;;;;5088868;28;20044;-71
2022/11/05 06:31:20;;;;;;;5.60;1.30;;;7.10;99.90;;;;;;5088033;28;20036;-71
2022/11/05 06:33:46;;;;;;;2.63;1.20;;;7.10;99.90;;;;;;5088070;28;20486;-70
2022/11/05 06:36:17;;;;;;;4.75;1.20;;;7.00;99.90;;;;;;5088708;28;20040;-70
2022/11/05 06:38:42;;;;;;;4.80;1.65;;;7.10;99.90;;;;;;5086897;28;20169;-70
2022/11/05 06:41:08;;;;;;;4.55;1.05;;;7.10;99.90;;;;;;5088882;28;20130;-70
2022/11/05 06:43:34;;;;;;;5.28;1.52;;;7.00;99.90;;;;;;5081880;28;20036;-71
2022/11/05 06:46:02;;;;;;;5.00;1.48;;;7.00;99.90;;;;;;5087519;28;20035;-71
2022/11/05 06:48:28;;;;;;;11.13;1.30;;;7.00;99.90;;;;;;5086878;28;20044;-72
2022/11/05 06:50:54;;;;;;;6.13;1.38;;;6.90;99.90;;;;;;5086306;28;20587;-69
2022/11/05 06:53:20;;;;;;;2.75;1.27;;;6.90;99.90;;;;;;5086152;28;20127;-69
2022/11/05 06:55:48;;;;;;;5.78;1.08;;;6.90;99.90;;;;;;5084602;28;20373;-70
2022/11/05 06:58:14;;;;;;;3.97;1.60;;;6.90;99.90;;;;;;5086936;28;20052;-70
2022/11/05 07:00:40;;;;;;;4.00;1.75;;;6.90;99.90;;;;;;5087079;28;20040;-70
2022/11/05 07:03:07;;;;;;;5.85;1.60;;;6.90;99.90;;;;;;5087356;28;20038;-71
2022/11/05 07:05:35;;;;;;;3.30;1.30;;;6.90;99.90;;;;;;5082043;28;20434;-71
2022/11/05 07:08:01;;;;;;;3.28;1.63;;;6.90;99.90;;;;;;5085677;28;20057;-71
2022/11/05 07:10:27;;;;;;;3.88;1.98;;;6.90;99.90;;;;;;5085111;28;20079;-70
2022/11/05 07:12:52;;;;;;;6.55;2.00;;;6.90;99.90;;;;;;5086914;28;20031;-70
2022/11/05 07:15:18;;;;;;;7.82;2.13;;;6.90;99.90;;;;;;5085574;28;20032;-70
2022/11/05 07:17:43;;;;;;;6.32;3.15;;;6.90;99.90;;;;;;5087445;28;20032;-70
2022/11/05 07:20:09;;;;;;;14.30;4.40;;;6.90;99.90;;;;;;5085852;28;20043;-71
2022/11/05 07:22:36;;;;;;;8.35;4.60;;;6.90;99.90;;;;;;5082568;28;20122;-70
2022/11/05 07:25:02;;;;;;;8.75;5.30;;;6.90;99.90;;;;;;5095603;28;20875;-71
2022/11/05 07:27:28;;;;;;;12.82;5.85;;;6.90;99.90;;;;;;5104837;28;20072;-71
2022/11/05 07:29:53;;;;;;;12.05;4.43;;;6.90;99.90;;;;;;5104796;28;20043;-71
2022/11/05 07:32:19;;;;;;;10.27;4.15;;;6.90;99.90;;;;;;5105935;27;20126;-70
2022/11/05 07:34:45;;;;;;;14.02;5.65;;;7.00;99.90;;;;;;5101806;28;20071;-71
2022/11/05 07:37:11;;;;;;;10.40;3.80;;;7.00;99.90;;;;;;5101287;27;20070;-71
2022/11/05 07:39:36;;;;;;;7.97;3.22;;;7.10;99.90;;;;;;5093780;28;20111;-70
2022/11/05 07:42:02;;;;;;;10.93;3.70;;;7.10;99.90;;;;;;5086232;28;20032;-70
2022/11/05 07:44:28;;;;;;;7.63;3.03;;;7.10;99.90;;;;;;5086181;28;20028;-71
2022/11/05 07:46:53;;;;;;;6.63;3.35;;;7.10;99.90;;;;;;5087104;28;20536;-71
2022/11/05 07:49:19;;;;;;;9.05;3.30;;;7.20;99.90;;;;;;5085590;28;20101;-70
2022/11/05 07:51:44;;;;;;;6.30;2.97;;;7.20;99.90;;;;;;5086220;28;20036;-71
2022/11/05 07:54:10;;;;;;;7.78;3.53;;;7.30;99.90;;;;;;5085533;28;20036;-71
2022/11/05 07:56:36;;;;;;;8.48;3.67;;;7.40;99.90;;;;;;5084364;28;20040;-71
2022/11/05 07:59:01;;;;;;;11.63;3.53;;;7.40;99.90;;;;;;5086620;28;20036;-72
2022/11/05 08:01:27;;;;;;;9.70;3.15;;;7.40;99.90;;;;;;5085053;28;20040;-71
2022/11/05 08:03:53;;;;;;;8.82;3.20;;;7.50;99.90;;;;;;5084491;28;20028;-71
2022/11/05 08:06:19;;;;;;;7.43;3.22;;;7.60;99.90;;;;;;5083330;28;20564;-70
2022/11/05 08:08:44;;;;;;;6.82;3.22;;;7.60;99.90;;;;;;5085410;28;20058;-71
2022/11/05 08:11:11;;;;;;;5.53;3.05;;;7.70;99.90;;;;;;5086107;28;20040;-70
2022/11/05 08:13:37;;;;;;;8.30;2.90;;;7.80;99.90;;;;;;5083236;28;20062;-71
2022/11/05 08:16:03;;;;;;;5.88;2.95;;;7.80;99.90;;;;;;5086112;28;20496;-71
2022/11/05 08:18:31;;;;;;;6.40;3.10;;;7.90;99.90;;;;;;5079684;28;20080;-71
2022/11/05 08:21:04;;;;;;;10.85;3.80;;;8.00;99.90;;;;;;5090450;27;20039;-70
2022/11/05 08:23:30;;;;;;;8.18;3.45;;;8.10;99.90;;;;;;5103743;28;20177;-70
2022/11/05 08:25:57;;;;;;;9.27;2.78;;;8.10;99.90;;;;;;5104246;27;20408;-71
2022/11/05 08:28:24;;;;;;;5.88;2.60;;;8.20;99.90;;;;;;5104793;27;20031;-71
2022/11/05 08:30:51;;;;;;;6.55;2.85;;;8.20;99.90;;;;;;5105766;27;20046;-70
2022/11/05 08:33:17;;;;;;;7.45;3.03;;;8.30;99.90;;;;;;5104603;27;20080;-71
2022/11/05 08:35:43;;;;;;;5.65;2.70;;;8.30;99.90;;;;;;5105453;27;20069;-71
2022/11/05 08:38:14;;;;;;;9.23;2.95;;;8.40;99.90;;;;;;5105374;28;20114;-71
2022/11/05 08:40:40;;;;;;;;;;;8.50;99.90;;;;;;5103876;28;20406;-70
2022/11/05 08:43:08;;;;;;;5.65;2.80;;;8.60;99.90;;;;;;5097927;28;19916;-71
2022/11/05 08:45:35;;;;;;;6.78;2.75;;;8.60;99.90;;;;;;5093080;28;20032;-71
2022/11/05 08:48:03;;;;;;;15.27;3.35;;;8.80;99.90;;;;;;5106485;27;20071;-70
2022/11/05 08:50:29;;;;;;;7.85;3.00;;;9.00;99.90;;;;;;5089748;27;20499;-70
2022/11/05 08:52:55;;;;;;;9.00;3.17;;;9.00;99.90;;;;;;5106125;27;20123;-70
2022/11/05 08:55:21;;;;;;;9.65;2.95;;;9.10;99.90;;;;;;5104299;27;20380;-71
2022/11/05 08:57:46;;;;;;;6.57;3.00;;;9.20;99.90;;;;;;5106055;28;20039;-71
2022/11/05 09:00:13;;;;;;;6.57;3.38;;;9.20;99.90;;;;;;5106167;28;20047;-70
2022/11/05 09:02:39;;;;;;;7.38;2.83;;;9.30;99.90;;;;;;5085320;28;20036;-70
2022/11/05 09:05:05;;;;;;;6.65;3.17;;;9.30;99.90;;;;;;5084021;28;20084;-71
2022/11/05 09:07:31;;;;;;;10.30;3.22;;;9.30;99.90;;;;;;5081667;28;20404;-71
2022/11/05 09:09:56;;;;;;;5.35;3.25;;;9.30;99.90;;;;;;5084443;28;20032;-70
2022/11/05 09:12:22;;;;;;;8.07;3.83;;;9.40;99.90;;;;;;5083153;28;20123;-73
2022/11/05 09:14:47;;;;;;;6.88;3.30;;;9.30;99.90;;;;;;5084040;28;20024;-70
2022/11/05 09:17:18;;;;;;;9.15;3.70;;;9.40;99.90;;;;;;5083600;28;20040;-70
2022/11/05 09:19:44;;;;;;;8.48;3.38;;;9.30;99.90;;;;;;5083987;28;20020;-69
2022/11/05 09:22:11;;;;;;;9.60;3.30;;;9.30;99.90;;;;;;5099467;28;20311;-71
2022/11/05 09:24:38;;;;;;;9.52;3.22;;;9.30;99.90;;;;;;5102000;28;20059;-70
2022/11/05 09:27:04;;;;;;;8.48;2.95;;;9.30;99.90;;;;;;5091131;28;20039;-70
2022/11/05 09:29:30;;;;;;;6.85;3.03;;;9.30;99.90;;;;;;5083910;28;20032;-71
2022/11/05 09:31:56;;;;;;;6.85;2.85;;;9.30;99.90;;;;;;5083217;28;20093;-69
2022/11/05 09:34:22;;;;;;;8.73;2.80;;;9.30;99.90;;;;;;5085302;28;20037;-71
2022/11/05 09:36:48;;;;;;;7.70;2.72;;;9.50;99.90;;;;;;5087998;28;20119;-70
2022/11/05 09:39:13;;;;;;;7.18;3.35;;;9.50;99.90;;;;;;5088924;28;20142;-71
2022/11/05 09:41:42;;;;;;;5.97;2.25;;;9.60;99.90;;;;;;5087178;28;20046;-71
2022/11/05 09:44:16;;;;;;;5.53;2.20;;;9.70;99.90;;;;;;5090036;28;20568;-72
2022/11/05 09:46:52;;;;;;;5.80;2.40;;;9.70;99.90;;;;;;5085517;28;20056;-72
2022/11/05 09:49:25;;;;;;;5.75;2.17;;;9.80;99.90;;;;;;5086967;28;20048;-71
2022/11/05 09:51:53;;;;;;;5.07;2.33;;;9.80;99.90;;;;;;5088206;28;20044;-71
2022/11/05 09:54:24;;;;;;;7.38;3.25;;;9.80;99.90;;;;;;5086616;28;20036;-70
2022/11/05 09:56:51;;;;;;;8.45;3.35;;;9.90;99.90;;;;;;5089049;28;20059;-70
2022/11/05 09:59:31;;;;;;;8.18;2.75;;;9.90;99.90;;;;;;5086393;28;20032;-71
2022/11/05 10:02:10;;;;;;;7.32;2.70;;;10.00;99.90;;;;;;5083672;28;20039;-70
2022/11/05 10:04:37;;;;;;;6.20;2.35;;;10.00;99.90;;;;;;5084300;28;20058;-71
2022/11/05 10:07:06;;;;;;;9.98;2.20;;;10.10;99.90;;;;;;5081543;27;20042;-71
2022/11/05 10:09:46;;;;;;;9.45;2.78;;;10.20;99.90;;;;;;5085039;28;20059;-71
2022/11/05 10:12:24;;;;;;;5.88;2.78;;;10.30;99.90;;;;;;5084106;28;20040;-70
2022/11/05 10:15:12;;;;;;;5.65;2.45;;;10.40;99.90;;;;;;5099899;28;20031;-70
2022/11/05 10:17:41;;;;;;;5.80;2.33;;;10.40;99.90;;;;;;5102368;28;20073;-70
2022/11/05 10:20:14;;;;;;;8.00;2.35;;;10.50;99.90;;;;;;5104350;28;20181;-70
2022/11/05 10:22:40;;;;;;;6.90;2.78;;;10.60;99.90;;;;;;5101057;28;20043;-71
2022/11/05 10:25:16;;;;;;;5.97;1.98;;;10.70;99.90;;;;;;5104674;28;20032;-71
2022/11/05 10:27:48;;;;;;;5.22;1.73;;;10.70;99.90;;;;;;5096809;27;20123;-70
2022/11/05 10:30:14;;;;;;;4.85;2.38;;;10.70;99.90;;;;;;5100594;28;20032;-71
2022/11/05 10:32:41;;;;;;;5.70;1.65;;;10.70;99.90;;;;;;5102813;28;20047;-70
2022/11/05 10:35:13;;;;;;;5.40;2.05;;;10.80;99.90;;;;;;5101207;27;20119;-70
2022/11/05 10:37:40;;;;;;;6.15;1.60;;;10.80;99.90;;;;;;5097623;28;20760;-71
2022/11/05 10:40:38;;;;;;;2.85;0.93;;;10.90;99.90;;;;;;5105907;27;20394;-70
2022/11/05 10:43:14;;;;;;;3.67;0.60;;;10.90;99.90;;;;;;5102586;28;20032;-72
2022/11/05 10:46:07;;;;;;;2.47;0.98;;;10.90;99.90;;;;;;5104531;28;20510;-70
2022/11/05 10:48:55;;;;;;;5.93;1.30;;;11.00;99.90;;;;;;5104794;28;20034;-70
2022/11/05 10:51:21;;;;;;;5.30;1.42;;;11.00;99.90;;;;;;5103024;28;20055;-70
2022/11/05 10:54:02;;;;;;;4.43;1.70;;;11.00;99.90;;;;;;5107070;28;20023;-70
2022/11/05 10:56:36;;;;;;;3.30;1.17;;;11.00;99.90;;;;;;5100507;28;20038;-71
2022/11/05 10:59:04;;;;;;;1.98;1.05;;;11.10;99.90;;;;;;5101953;28;20178;-72
2022/11/05 11:01:30;;;;;;;2.90;1.42;;;11.10;99.90;;;;;;5099942;28;20039;-71
2022/11/05 11:04:24;;;;;;;4.05;1.50;;;11.20;99.90;;;;;;5101169;28;20033;-70
2022/11/05 11:06:55;;;;;;;5.28;1.40;;;11.20;99.90;;;;;;5079164;27;20271;-70
2022/11/05 11:09:21;;;;;;;6.68;1.45;;;11.20;99.90;;;;;;5082679;27;20081;-71
2022/11/05 11:11:54;;;;;;;4.60;1.63;;;11.20;99.90;;;;;;5087091;27;20048;-71
2022/11/05 11:14:21;;;;;;;4.38;1.55;;;11.20;99.90;;;;;;5081801;27;20424;-71
2022/11/05 11:16:56;;;;;;;3.70;1.17;;;11.20;99.90;;;;;;5092276;28;20503;-71
2022/11/05 11:19:31;;;;;;;2.97;1.33;;;11.20;99.90;;;;;;5092063;28;20036;-70
2022/11/05 11:22:03;;;;;;;6.43;1.58;;;11.20;99.90;;;;;;5099595;28;20052;-71
2022/11/05 11:24:58;;;;;;;3.58;1.02;;;11.30;99.90;;;;;;5097964;27;20040;-70
2022/11/05 11:27:28;;;;;;;5.82;1.83;;;11.30;99.90;;;;;;5071694;28;20420;-72
2022/11/05 11:29:59;;;;;;;4.32;1.25;;;11.50;99.90;;;;;;5089690;28;20119;-70
2022/11/05 11:32:30;;;;;;;3.08;0.75;;;11.50;99.90;;;;;;5081757;28;20032;-70
2022/11/05 11:34:57;;;;;;;2.42;1.23;;;11.50;99.90;;;;;;5083512;28;20032;-70
2022/11/05 11:37:33;;;;;;;3.30;1.05;;;11.60;99.90;;;;;;5081177;28;20208;-69
2022/11/05 11:40:05;;;;;;;4.72;1.20;;;11.60;99.90;;;;;;5082599;28;20050;-71
2022/11/05 11:42:38;;;;;;;4.32;0.98;;;11.60;99.90;;;;;;5083449;28;20097;-70
2022/11/05 11:45:26;;;;;;;2.97;1.00;;;11.60;99.90;;;;;;5082510;28;20055;-70
2022/11/05 11:47:54;;;;;;;5.45;1.10;;;11.70;99.90;;;;;;5101926;28;20074;-70
2022/11/05 11:50:36;;;;;;;4.97;1.40;;;11.90;99.90;;;;;;5104476;28;20036;-69
2022/11/05 11:53:20;;;;;;;3.65;1.33;;;11.90;99.90;;;;;;5089737;28;20055;-71
2022/11/05 11:56:10;;;;;;;5.10;1.10;;;12.00;99.90;;;;;;5094534;27;20034;-70
2022/11/05 11:58:44;;;;;;;4.25;0.73;;;12.10;99.90;;;;;;5100238;28;20031;-72
2022/11/05 12:01:19;;;;;;;3.67;1.08;;;12.10;99.90;;;;;;5100842;28;20035;-70
2022/11/05 12:03:44;;;;;;;3.70;1.20;;;12.20;99.90;;;;;;5096888;27;20115;-71
2022/11/05 12:06:32;;;;;;;3.97;1.38;;;12.20;99.90;;;;;;5095671;28;20492;-71
2022/11/05 12:09:14;;;;;;;2.47;1.00;;;12.10;99.90;;;;;;5098713;28;20032;-72
2022/11/05 12:12:06;;;;;;;3.70;0.93;;;12.10;99.90;;;;;;5093669;28;20523;-70
2022/11/05 12:14:56;;;;;;;3.65;0.82;;;12.10;99.90;;;;;;5095784;28;20063;-71
2022/11/05 12:17:31;;;;;;;3.75;0.90;;;12.10;99.90;;;;;;5098408;27;20032;-72
2022/11/05 12:20:37;;;;;;;1.63;0.73;;;12.10;99.90;;;;;;5095393;27;20185;-72
2022/11/05 12:23:55;;;;;;;11.70;2.38;;;12.20;99.90;;;;;;5055693;28;20514;-72
2022/11/05 12:26:45;;;;;;;3.17;1.02;;;12.10;99.90;;;;;;5018498;28;20053;-72
2022/11/05 12:29:47;;;;;;;3.03;0.77;;;12.10;99.90;;;;;;5003834;28;20124;-70
2022/11/05 12:32:30;;;;;;;5.78;0.95;;;12.10;99.90;;;;;;5076047;28;20130;-73
2022/11/05 12:35:17;;;;;;;6.75;1.17;;;12.00;99.90;;;;;;5082190;28;20048;-70
2022/11/05 12:38:06;;;;;;;1.98;1.05;;;12.00;99.90;;;;;;5078010;28;20054;-72
2022/11/05 12:40:34;;;;;;;8.15;1.23;;;12.00;99.90;;;;;;5079858;28;20084;-70
2022/11/05 12:43:10;;;;;;;2.75;1.27;;;12.00;99.90;;;;;;5076045;28;20039;-71
2022/11/05 12:45:57;;;;;;;4.60;1.20;;;11.90;99.90;;;;;;5077258;28;20059;-72
2022/11/05 12:48:58;;;;;;;2.80;1.23;;;12.00;99.90;;;;;;5087225;28;20036;-72
2022/11/05 12:51:51;;;;;;;;;;;11.90;99.90;;;;;;5028407;28;20044;-70
2022/11/05 12:54:22;;;;;;;3.13;1.00;;;11.90;99.90;;;;;;5094630;28;19943;-71
2022/11/05 12:56:54;;;;;;;3.00;1.08;;;11.90;99.90;;;;;;5095602;28;20032;-71
2022/11/05 12:59:35;;;;;;;6.53;1.38;;;11.90;99.90;;;;;;5100511;28;20126;-71
2022/11/05 13:02:33;;;;;;;10.70;1.92;;;11.90;99.90;;;;;;5100369;28;20418;-71
2022/11/05 13:05:12;;;;;;;5.00;1.27;;;11.90;99.90;;;;;;5092843;28;20052;-71
2022/11/05 13:07:43;;;;;;;3.17;1.17;;;11.80;99.90;;;;;;5103461;27;20084;-71
2022/11/05 13:10:24;;;;;;;3.65;1.50;;;11.80;99.90;;;;;;5103408;28;20036;-71
2022/11/05 13:13:03;;;;;;;2.83;0.93;;;11.80;99.90;;;;;;5097300;28;20373;-71
2022/11/05 13:15:36;;;;;;;5.07;1.63;;;11.80;99.90;;;;;;5095763;28;20020;-71
2022/11/05 13:18:12;;;;;;;3.78;1.20;;;11.80;99.90;;;;;;5095474;28;20035;-71
2022/11/05 13:20:42;;;;;;;3.88;1.35;;;11.90;99.90;;;;;;5100172;28;20062;-70
2022/11/05 13:23:23;;;;;;;3.95;1.13;;;11.80;99.90;;;;;;5099510;28;20123;-70
2022/11/05 13:26:45;;;;;;;6.43;2.05;;;11.90;99.90;;;;;;5096550;28;20036;-69
2022/11/05 13:29:30;;;;;;;3.42;1.10;;;11.80;99.90;;;;;;5017470;28;20506;-72
2022/11/05 13:32:03;;;;;;;4.70;1.38;;;11.90;99.90;;;;;;4999534;28;20049;-70
2022/11/05 13:34:29;;;;;;;3.08;1.27;;;11.90;99.90;;;;;;5079913;28;20570;-71
2022/11/05 13:39:51;;;;;;;8.27;1.50;;;11.80;99.90;;;;;;5095105;28;20109;-71
2022/11/05 13:43:10;;;;;;;3.38;1.10;;;11.80;99.90;;;;;;5099370;28;20063;-70
2022/11/05 13:46:00;;;;;;;4.13;1.30;;;11.70;99.90;;;;;;5095008;28;20077;-71
2022/11/05 13:48:35;;;;;;;6.47;1.40;;;11.70;99.90;;;;;;5100451;28;20039;-70
2022/11/05 13:51:28;;;;;;;6.88;1.80;;;11.70;99.90;;;;;;5103379;27;20043;-69
2022/11/05 13:54:17;;;;;;;6.25;1.33;;;11.70;99.90;;;;;;5078498;28;20085;-69
2022/11/05 13:57:14;;;;;;;6.47;1.95;;;11.70;99.90;;;;;;5086431;28;20118;-71
2022/11/05 14:00:02;;;;;;;9.23;1.65;;;11.60;99.90;;;;;;5094536;28;20083;-69
2022/11/05 14:02:38;;;;;;;2.90;1.40;;;11.60;99.90;;;;;;5099713;28;20040;-70
2022/11/05 14:05:06;;;;;;;5.07;1.23;;;11.60;99.90;;;;;;5101019;28;20032;-68
2022/11/05 14:07:44;;;;;;;3.97;1.48;;;11.60;99.90;;;;;;5102948;28;20039;-70
2022/11/05 14:10:29;;;;;;;4.60;1.60;;;11.60;99.90;;;;;;5093852;28;20035;-70
2022/11/05 14:12:57;;;;;;;11.25;1.92;;;11.60;99.90;;;;;;5095620;28;20032;-70